sensor_id;sensor_type;location;lat;lon;timestamp;pressure;altitude;pressure_sealevel;temperature;humidity
70200;BME280;57587;55.688;37.600;2022-10-16T00:01:32;100695.66;;;7.74;52.59
70200;BME280;57587;55.688;37.600;2022-10-16T00:04:00;100697.88;;;7.69;51.93
70200;BME280;57587;55.688;37.600;2022-10-16T00:06:29;100689.75;;;7.71;52.20
70200;BME280;57587;55.688;37.600;2022-10-16T00:08:57;100702.38;;;7.69;52.58
70200;BME280;57587;55.688;37.600;2022-10-16T00:11:31;100702.94;;;7.72;52.34
70200;BME280;57587;55.688;37.600;2022-10-16T00:14:09;100709.09;;;7.63;52.33
70200;BME280;57587;55.688;37.600;2022-10-16T00:16:37;100704.47;;;7.65;52.40
70200;BME280;57587;55.688;37.600;2022-10-16T00:19:05;100706.28;;;7.65;52.51
70200;BME280;57587;55.688;37.600;2022-10-16T00:21:32;100708.25;;;7.62;52.78
70200;BME280;57587;55.688;37.600;2022-10-16T00:24:18;100710.06;;;7.62;52.64
70200;BME280;57587;55.688;37.600;2022-10-16T00:26:45;100714.25;;;7.55;53.02
70200;BME280;57587;55.688;37.600;2022-10-16T00:29:15;100712.56;;;7.54;53.10
70200;BME280;57587;55.688;37.600;2022-10-16T00:31:43;100711.16;;;7.50;53.35
70200;BME280;57587;55.688;37.600;2022-10-16T00:34:10;100705.41;;;7.45;53.54
70200;BME280;57587;55.688;37.600;2022-10-16T00:36:37;100709.72;;;7.46;53.46
70200;BME280;57587;55.688;37.600;2022-10-16T00:39:07;100703.00;;;7.42;53.49
70200;BME280;57587;55.688;37.600;2022-10-16T00:41:34;100718.25;;;7.39;53.43
70200;BME280;57587;55.688;37.600;2022-10-16T00:44:40;100712.94;;;7.39;53.26
70200;BME280;57587;55.688;37.600;2022-10-16T00:46:50;100715.59;;;7.39;53.73
70200;BME280;57587;55.688;37.600;2022-10-16T00:49:19;100714.66;;;7.41;53.31
70200;BME280;57587;55.688;37.600;2022-10-16T00:51:52;100717.16;;;7.42;52.85
70200;BME280;57587;55.688;37.600;2022-10-16T00:54:26;100716.44;;;7.40;53.54
70200;BME280;57587;55.688;37.600;2022-10-16T00:56:55;100715.59;;;7.39;53.50
70200;BME280;57587;55.688;37.600;2022-10-16T00:59:29;100726.78;;;7.33;53.20
70200;BME280;57587;55.688;37.600;2022-10-16T01:01:58;100719.63;;;7.34;53.55
70200;BME280;57587;55.688;37.600;2022-10-16T01:04:26;100723.56;;;7.30;54.04
70200;BME280;57587;55.688;37.600;2022-10-16T01:16:43;100735.59;;;7.24;54.00
70200;BME280;57587;55.688;37.600;2022-10-16T01:23:19;100730.63;;;7.10;54.09
70200;BME280;57587;55.688;37.600;2022-10-16T01:28:17;100737.19;;;7.06;54.21
70200;BME280;57587;55.688;37.600;2022-10-16T01:30:47;100735.78;;;7.02;54.73
70200;BME280;57587;55.688;37.600;2022-10-16T01:33:20;100738.88;;;7.07;54.30
70200;BME280;57587;55.688;37.600;2022-10-16T01:35:52;100744.75;;;7.01;55.04
70200;BME280;57587;55.688;37.600;2022-10-16T01:40:59;100743.91;;;7.00;54.66
70200;BME280;57587;55.688;37.600;2022-10-16T01:43:35;100749.22;;;7.00;54.75
70200;BME280;57587;55.688;37.600;2022-10-16T01:46:05;100746.94;;;6.96;54.47
70200;BME280;57587;55.688;37.600;2022-10-16T01:48:34;100750.84;;;6.91;55.03
70200;BME280;57587;55.688;37.600;2022-10-16T01:51:06;100738.75;;;6.87;55.08
70200;BME280;57587;55.688;37.600;2022-10-16T01:53:33;100749.81;;;6.83;55.10
70200;BME280;57587;55.688;37.600;2022-10-16T01:56:02;100742.94;;;6.80;54.86
70200;BME280;57587;55.688;37.600;2022-10-16T01:58:35;100744.09;;;6.87;55.16
70200;BME280;57587;55.688;37.600;2022-10-16T02:01:04;100740.00;;;6.83;54.93
70200;BME280;57587;55.688;37.600;2022-10-16T02:03:34;100741.25;;;6.79;55.17
70200;BME280;57587;55.688;37.600;2022-10-16T02:06:03;100748.72;;;6.85;55.20
70200;BME280;57587;55.688;37.600;2022-10-16T02:08:31;100747.16;;;6.83;54.82
70200;BME280;57587;55.688;37.600;2022-10-16T02:10:59;100754.97;;;6.84;55.08
70200;BME280;57587;55.688;37.600;2022-10-16T02:13:34;100753.81;;;6.77;55.27
70200;BME280;57587;55.688;37.600;2022-10-16T02:16:03;100745.84;;;6.77;55.29
70200;BME280;57587;55.688;37.600;2022-10-16T02:18:31;100747.56;;;6.78;55.67
70200;BME280;57587;55.688;37.600;2022-10-16T02:26:09;100750.75;;;6.72;55.04
70200;BME280;57587;55.688;37.600;2022-10-16T02:28:45;100748.91;;;6.73;55.30
70200;BME280;57587;55.688;37.600;2022-10-16T02:31:18;100757.72;;;6.73;55.80
70200;BME280;57587;55.688;37.600;2022-10-16T02:33:50;100756.75;;;6.74;55.42
70200;BME280;57587;55.688;37.600;2022-10-16T02:36:19;100759.94;;;6.68;55.42
70200;BME280;57587;55.688;37.600;2022-10-16T02:38:47;100749.28;;;6.68;56.08
70200;BME280;57587;55.688;37.600;2022-10-16T02:41:14;100754.88;;;6.65;55.22
70200;BME280;57587;55.688;37.600;2022-10-16T02:43:42;100756.09;;;6.61;55.21
70200;BME280;57587;55.688;37.600;2022-10-16T02:46:09;100762.19;;;6.52;55.48
70200;BME280;57587;55.688;37.600;2022-10-16T02:48:36;100756.75;;;6.53;56.06
70200;BME280;57587;55.688;37.600;2022-10-16T02:51:03;100758.38;;;6.44;55.88
70200;BME280;57587;55.688;37.600;2022-10-16T02:53:30;100767.31;;;6.43;55.73
70200;BME280;57587;55.688;37.600;2022-10-16T02:55:57;100758.88;;;6.38;56.19
70200;BME280;57587;55.688;37.600;2022-10-16T02:58:24;100766.75;;;6.29;56.54
70200;BME280;57587;55.688;37.600;2022-10-16T03:00:51;100770.28;;;6.29;56.69
70200;BME280;57587;55.688;37.600;2022-10-16T03:03:18;100760.75;;;6.27;56.85
70200;BME280;57587;55.688;37.600;2022-10-16T03:05:45;100759.66;;;6.29;56.31
70200;BME280;57587;55.688;37.600;2022-10-16T03:08:13;100769.03;;;6.33;56.22
70200;BME280;57587;55.688;37.600;2022-10-16T03:10:42;100766.75;;;6.29;56.23
70200;BME280;57587;55.688;37.600;2022-10-16T03:13:09;100785.00;;;6.33;57.15
70200;BME280;57587;55.688;37.600;2022-10-16T03:15:36;100772.53;;;6.34;56.54
70200;BME280;57587;55.688;37.600;2022-10-16T03:18:03;100776.78;;;6.36;56.24
70200;BME280;57587;55.688;37.600;2022-10-16T03:20:30;100775.09;;;6.35;56.43
70200;BME280;57587;55.688;37.600;2022-10-16T03:22:57;100773.97;;;6.38;56.16
70200;BME280;57587;55.688;37.600;2022-10-16T03:25:24;100783.75;;;6.37;56.87
70200;BME280;57587;55.688;37.600;2022-10-16T03:27:51;100781.25;;;6.36;56.31
70200;BME280;57587;55.688;37.600;2022-10-16T03:30:18;100783.44;;;6.31;56.76
70200;BME280;57587;55.688;37.600;2022-10-16T03:32:46;100784.28;;;6.31;56.70
70200;BME280;57587;55.688;37.600;2022-10-16T03:35:13;100788.25;;;6.37;57.14
70200;BME280;57587;55.688;37.600;2022-10-16T03:37:40;100791.88;;;6.36;56.92
70200;BME280;57587;55.688;37.600;2022-10-16T03:40:07;100790.69;;;6.29;56.50
70200;BME280;57587;55.688;37.600;2022-10-16T03:42:34;100789.84;;;6.28;57.17
70200;BME280;57587;55.688;37.600;2022-10-16T03:45:01;100792.75;;;6.25;57.52
70200;BME280;57587;55.688;37.600;2022-10-16T03:47:29;100794.31;;;6.28;57.07
70200;BME280;57587;55.688;37.600;2022-10-16T03:49:57;100797.69;;;6.30;56.38
70200;BME280;57587;55.688;37.600;2022-10-16T03:52:24;100789.84;;;6.28;57.32
70200;BME280;57587;55.688;37.600;2022-10-16T03:54:51;100789.00;;;6.28;57.74
70200;BME280;57587;55.688;37.600;2022-10-16T03:57:18;100797.69;;;6.30;57.25
70200;BME280;57587;55.688;37.600;2022-10-16T03:59:45;100794.06;;;6.31;56.97
70200;BME280;57587;55.688;37.600;2022-10-16T04:02:12;100803.59;;;6.33;56.90
70200;BME280;57587;55.688;37.600;2022-10-16T04:04:39;100796.88;;;6.29;56.67
70200;BME280;57587;55.688;37.600;2022-10-16T04:07:06;100798.06;;;6.25;56.68
70200;BME280;57587;55.688;37.600;2022-10-16T04:09:33;100801.69;;;6.24;56.51
70200;BME280;57587;55.688;37.600;2022-10-16T04:12:00;100796.38;;;6.24;56.79
70200;BME280;57587;55.688;37.600;2022-10-16T04:14:27;100793.72;;;6.24;56.89
70200;BME280;57587;55.688;37.600;2022-10-16T04:16:54;100789.84;;;6.28;56.72
70200;BME280;57587;55.688;37.600;2022-10-16T04:19:21;100796.63;;;6.32;56.52
70200;BME280;57587;55.688;37.600;2022-10-16T04:21:48;100789.84;;;6.28;56.36
70200;BME280;57587;55.688;37.600;2022-10-16T04:24:15;100793.72;;;6.24;56.29
70200;BME280;57587;55.688;37.600;2022-10-16T04:26:42;100795.16;;;6.28;56.24
70200;BME280;57587;55.688;37.600;2022-10-16T04:29:09;100799.97;;;6.34;56.71
70200;BME280;57587;55.688;37.600;2022-10-16T04:31:36;100801.69;;;6.35;56.82
70200;BME280;57587;55.688;37.600;2022-10-16T04:34:03;100800.69;;;6.36;56.63
70200;BME280;57587;55.688;37.600;2022-10-16T04:36:30;100803.84;;;6.62;55.67
70200;BME280;57587;55.688;37.600;2022-10-16T04:38:57;100803.34;;;6.89;54.88
70200;BME280;57587;55.688;37.600;2022-10-16T04:41:24;100801.91;;;6.85;54.56
70200;BME280;57587;55.688;37.600;2022-10-16T04:43:51;100804.56;;;6.85;54.92
70200;BME280;57587;55.688;37.600;2022-10-16T04:46:18;100808.44;;;6.81;55.17
70200;BME280;57587;55.688;37.600;2022-10-16T04:48:45;100813.25;;;6.87;55.36
70200;BME280;57587;55.688;37.600;2022-10-16T04:51:13;100815.66;;;6.90;54.99
70200;BME280;57587;55.688;37.600;2022-10-16T04:53:40;100807.88;;;6.99;55.20
70200;BME280;57587;55.688;37.600;2022-10-16T04:56:07;100808.97;;;6.96;54.42
70200;BME280;57587;55.688;37.600;2022-10-16T04:58:34;100814.19;;;6.98;54.93
70200;BME280;57587;55.688;37.600;2022-10-16T05:01:01;100816.59;;;7.01;54.78
70200;BME280;57587;55.688;37.600;2022-10-16T05:03:28;100811.00;;;7.04;54.33
70200;BME280;57587;55.688;37.600;2022-10-16T05:05:56;100819.88;;;7.14;54.79
70200;BME280;57587;55.688;37.600;2022-10-16T05:08:23;100817.09;;;7.15;53.86
70200;BME280;57587;55.688;37.600;2022-10-16T05:10:50;100809.44;;;7.22;53.81
70200;BME280;57587;55.688;37.600;2022-10-16T05:13:17;100811.38;;;7.20;54.16
70200;BME280;57587;55.688;37.600;2022-10-16T05:15:48;100816.16;;;7.26;53.90
70200;BME280;57587;55.688;37.600;2022-10-16T05:18:16;100818.03;;;7.35;53.54
70200;BME280;57587;55.688;37.600;2022-10-16T05:20:43;100814.56;;;7.45;53.66
70200;BME280;57587;55.688;37.600;2022-10-16T05:23:10;100814.31;;;7.48;53.95
70200;BME280;57587;55.688;37.600;2022-10-16T05:25:42;100818.56;;;7.60;52.86
70200;BME280;57587;55.688;37.600;2022-10-16T05:28:09;100823.63;;;8.13;51.82
70200;BME280;57587;55.688;37.600;2022-10-16T05:30:37;100818.81;;;9.33;48.83
70200;BME280;57587;55.688;37.600;2022-10-16T05:33:04;100822.50;;;10.60;45.98
70200;BME280;57587;55.688;37.600;2022-10-16T05:35:31;100824.59;;;11.71;42.81
70200;BME280;57587;55.688;37.600;2022-10-16T05:37:58;100824.03;;;12.85;41.03
70200;BME280;57587;55.688;37.600;2022-10-16T05:40:25;100828.72;;;13.88;38.71
70200;BME280;57587;55.688;37.600;2022-10-16T05:42:55;100833.41;;;14.79;35.97
70200;BME280;57587;55.688;37.600;2022-10-16T05:45:22;100818.00;;;15.40;34.58
70200;BME280;57587;55.688;37.600;2022-10-16T05:47:49;100827.50;;;16.32;33.17
70200;BME280;57587;55.688;37.600;2022-10-16T05:50:16;100826.38;;;17.05;31.75
70200;BME280;57587;55.688;37.600;2022-10-16T05:52:43;100826.91;;;17.79;30.56
70200;BME280;57587;55.688;37.600;2022-10-16T05:55:10;100821.94;;;18.43;29.45
70200;BME280;57587;55.688;37.600;2022-10-16T05:57:37;100826.59;;;19.16;29.03
70200;BME280;57587;55.688;37.600;2022-10-16T06:00:05;100826.19;;;20.11;27.41
70200;BME280;57587;55.688;37.600;2022-10-16T06:02:38;100835.22;;;20.81;26.27
70200;BME280;57587;55.688;37.600;2022-10-16T06:05:05;100838.66;;;21.45;24.71
70200;BME280;57587;55.688;37.600;2022-10-16T06:07:36;100836.59;;;22.14;24.28
70200;BME280;57587;55.688;37.600;2022-10-16T06:10:04;100839.97;;;22.76;23.56
70200;BME280;57587;55.688;37.600;2022-10-16T06:12:31;100834.75;;;23.17;22.80
70200;BME280;57587;55.688;37.600;2022-10-16T06:15:01;100835.78;;;23.86;22.19
70200;BME280;57587;55.688;37.600;2022-10-16T06:17:29;100838.59;;;24.32;21.18
70200;BME280;57587;55.688;37.600;2022-10-16T06:19:56;100839.75;;;24.93;20.63
70200;BME280;57587;55.688;37.600;2022-10-16T06:22:23;100836.59;;;25.52;20.15
70200;BME280;57587;55.688;37.600;2022-10-16T06:24:50;100827.53;;;25.73;19.23
70200;BME280;57587;55.688;37.600;2022-10-16T06:27:17;100832.91;;;26.07;19.19
70200;BME280;57587;55.688;37.600;2022-10-16T06:29:44;100838.19;;;26.36;18.35
70200;BME280;57587;55.688;37.600;2022-10-16T06:32:11;100841.16;;;26.56;18.32
70200;BME280;57587;55.688;37.600;2022-10-16T06:34:39;100840.34;;;26.83;17.92
70200;BME280;57587;55.688;37.600;2022-10-16T06:37:09;100834.72;;;27.37;18.17
70200;BME280;57587;55.688;37.600;2022-10-16T06:39:36;100841.09;;;27.85;17.02
70200;BME280;57587;55.688;37.600;2022-10-16T06:42:03;100846.44;;;28.12;17.15
70200;BME280;57587;55.688;37.600;2022-10-16T06:44:35;100843.75;;;28.38;16.53
70200;BME280;57587;55.688;37.600;2022-10-16T06:47:02;100843.53;;;28.95;16.56
70200;BME280;57587;55.688;37.600;2022-10-16T06:49:29;100846.03;;;29.43;16.16
70200;BME280;57587;55.688;37.600;2022-10-16T06:51:56;100847.38;;;29.71;16.08
70200;BME280;57587;55.688;37.600;2022-10-16T06:54:23;100851.84;;;30.27;15.27
70200;BME280;57587;55.688;37.600;2022-10-16T06:56:51;100849.63;;;30.68;14.75
70200;BME280;57587;55.688;37.600;2022-10-16T06:59:18;100845.38;;;30.91;14.36
70200;BME280;57587;55.688;37.600;2022-10-16T07:01:45;100844.50;;;30.91;14.36
70200;BME280;57587;55.688;37.600;2022-10-16T07:04:12;100854.34;;;31.07;14.61
70200;BME280;57587;55.688;37.600;2022-10-16T07:06:39;100851.25;;;31.43;14.68
70200;BME280;57587;55.688;37.600;2022-10-16T07:09:09;100858.56;;;31.58;13.73
70200;BME280;57587;55.688;37.600;2022-10-16T07:11:38;100855.72;;;31.39;14.29
70200;BME280;57587;55.688;37.600;2022-10-16T07:14:12;100849.03;;;31.93;13.46
70200;BME280;57587;55.688;37.600;2022-10-16T07:16:41;100845.69;;;30.85;13.99
70200;BME280;57587;55.688;37.600;2022-10-16T07:19:08;100856.66;;;31.24;13.70
70200;BME280;57587;55.688;37.600;2022-10-16T07:21:35;100866.09;;;31.52;13.96
70200;BME280;57587;55.688;37.600;2022-10-16T07:24:05;100860.97;;;31.06;13.70
70200;BME280;57587;55.688;37.600;2022-10-16T07:26:34;100852.94;;;30.70;13.74
70200;BME280;57587;55.688;37.600;2022-10-16T07:29:02;100860.44;;;31.04;14.09
70200;BME280;57587;55.688;37.600;2022-10-16T07:31:30;100860.78;;;31.27;13.62
70200;BME280;57587;55.688;37.600;2022-10-16T07:33:59;100868.41;;;31.93;13.99
70200;BME280;57587;55.688;37.600;2022-10-16T07:36:26;100857.34;;;32.36;13.38
70200;BME280;57587;55.688;37.600;2022-10-16T07:38:53;100859.91;;;32.89;12.69
70200;BME280;57587;55.688;37.600;2022-10-16T07:41:26;100861.03;;;31.83;13.03
70200;BME280;57587;55.688;37.600;2022-10-16T07:43:53;100851.13;;;30.95;14.12
70200;BME280;57587;55.688;37.600;2022-10-16T07:46:22;100849.38;;;31.38;13.90
70200;BME280;57587;55.688;37.600;2022-10-16T07:48:49;100862.66;;;31.89;13.99
70200;BME280;57587;55.688;37.600;2022-10-16T07:51:19;100850.25;;;32.49;13.24
70200;BME280;57587;55.688;37.600;2022-10-16T07:53:47;100853.47;;;32.37;12.96
70200;BME280;57587;55.688;37.600;2022-10-16T07:56:16;100851.28;;;32.34;13.35
70200;BME280;57587;55.688;37.600;2022-10-16T07:58:43;100861.72;;;32.61;13.10
70200;BME280;57587;55.688;37.600;2022-10-16T08:01:15;100859.78;;;33.13;12.93
70200;BME280;57587;55.688;37.600;2022-10-16T08:03:44;100858.25;;;33.54;12.28
70200;BME280;57587;55.688;37.600;2022-10-16T08:06:12;100853.88;;;33.47;12.48
70200;BME280;57587;55.688;37.600;2022-10-16T08:08:39;100855.47;;;33.07;12.63
70200;BME280;57587;55.688;37.600;2022-10-16T08:11:07;100855.66;;;33.11;12.90
70200;BME280;57587;55.688;37.600;2022-10-16T08:13:35;100856.78;;;32.77;12.75
70200;BME280;57587;55.688;37.600;2022-10-16T08:16:03;100858.88;;;32.47;13.33
70200;BME280;57587;55.688;37.600;2022-10-16T08:18:35;100867.94;;;31.86;13.05
70200;BME280;57587;55.688;37.600;2022-10-16T08:21:03;100861.47;;;31.72;13.57
70200;BME280;57587;55.688;37.600;2022-10-16T08:23:32;100857.16;;;31.60;13.56
70200;BME280;57587;55.688;37.600;2022-10-16T08:26:05;100847.97;;;32.13;13.05
70200;BME280;57587;55.688;37.600;2022-10-16T08:28:32;100861.44;;;32.20;12.86
70200;BME280;57587;55.688;37.600;2022-10-16T08:33:37;100849.47;;;30.94;13.58
70200;BME280;57587;55.688;37.600;2022-10-16T08:36:05;100858.22;;;31.06;14.35
70200;BME280;57587;55.688;37.600;2022-10-16T08:38:33;100855.97;;;30.79;14.05
70200;BME280;57587;55.688;37.600;2022-10-16T08:47:21;100855.41;;;31.11;14.29
70200;BME280;57587;55.688;37.600;2022-10-16T08:52:19;100862.50;;;31.22;13.92
70200;BME280;57587;55.688;37.600;2022-10-16T08:54:51;100847.47;;;31.34;13.78
70200;BME280;57587;55.688;37.600;2022-10-16T08:57:22;100837.91;;;31.98;13.78
70200;BME280;57587;55.688;37.600;2022-10-16T08:59:57;100854.91;;;31.38;13.70
70200;BME280;57587;55.688;37.600;2022-10-16T09:02:49;100848.56;;;31.38;13.63
70200;BME280;57587;55.688;37.600;2022-10-16T09:08:27;100844.16;;;31.32;12.99
70200;BME280;57587;55.688;37.600;2022-10-16T09:16:47;100850.75;;;31.41;13.75
70200;BME280;57587;55.688;37.600;2022-10-16T09:19:31;100836.41;;;30.65;14.31
70200;BME280;57587;55.688;37.600;2022-10-16T09:22:11;100836.00;;;30.48;14.57
70200;BME280;57587;55.688;37.600;2022-10-16T09:24:40;100825.97;;;30.07;14.41
70200;BME280;57587;55.688;37.600;2022-10-16T09:27:12;100831.72;;;30.16;14.86
70200;BME280;57587;55.688;37.600;2022-10-16T09:29:40;100832.19;;;29.69;14.74
70200;BME280;57587;55.688;37.600;2022-10-16T09:32:12;100844.91;;;29.44;15.01
70200;BME280;57587;55.688;37.600;2022-10-16T09:34:43;100834.16;;;28.61;15.50
70200;BME280;57587;55.688;37.600;2022-10-16T09:37:16;100838.00;;;28.55;15.44
70200;BME280;57587;55.688;37.600;2022-10-16T09:39:53;100843.22;;;27.78;15.85
70200;BME280;57587;55.688;37.600;2022-10-16T09:42:27;100831.28;;;27.15;16.34
70200;BME280;57587;55.688;37.600;2022-10-16T09:44:57;100834.22;;;27.08;16.43
70200;BME280;57587;55.688;37.600;2022-10-16T09:47:26;100839.25;;;26.57;16.80
70200;BME280;57587;55.688;37.600;2022-10-16T09:49:57;100836.38;;;27.01;16.39
70200;BME280;57587;55.688;37.600;2022-10-16T09:52:26;100828.25;;;26.84;17.08
70200;BME280;57587;55.688;37.600;2022-10-16T09:54:55;100818.84;;;27.07;17.34
70200;BME280;57587;55.688;37.600;2022-10-16T09:57:26;100827.03;;;27.02;17.04
70200;BME280;57587;55.688;37.600;2022-10-16T09:59:55;100819.75;;;27.18;16.68
70200;BME280;57587;55.688;37.600;2022-10-16T10:02:42;100825.34;;;26.41;16.79
70200;BME280;57587;55.688;37.600;2022-10-16T10:05:37;100819.28;;;25.51;17.95
70200;BME280;57587;55.688;37.600;2022-10-16T10:08:06;100819.19;;;25.24;18.35
70200;BME280;57587;55.688;37.600;2022-10-16T10:10:41;100813.44;;;25.43;18.22
70200;BME280;57587;55.688;37.600;2022-10-16T10:13:22;100806.06;;;25.65;17.78
70200;BME280;57587;55.688;37.600;2022-10-16T10:15:51;100810.03;;;25.02;18.51
70200;BME280;57587;55.688;37.600;2022-10-16T10:18:21;100806.06;;;25.26;18.63
70200;BME280;57587;55.688;37.600;2022-10-16T10:20:58;100811.75;;;25.08;18.54
70200;BME280;57587;55.688;37.600;2022-10-16T10:23:28;100808.41;;;24.55;19.01
70200;BME280;57587;55.688;37.600;2022-10-16T10:36:41;100799.69;;;23.61;20.22
70200;BME280;57587;55.688;37.600;2022-10-16T10:39:15;100809.66;;;23.43;20.43
70200;BME280;57587;55.688;37.600;2022-10-16T10:46:57;100809.59;;;22.31;21.64
70200;BME280;57587;55.688;37.600;2022-10-16T10:49:57;100807.97;;;21.75;22.39
70200;BME280;57587;55.688;37.600;2022-10-16T10:52:48;100795.56;;;21.60;22.39
70200;BME280;57587;55.688;37.600;2022-10-16T11:01:29;100797.22;;;20.36;24.63
70200;BME280;57587;55.688;37.600;2022-10-16T11:07:18;100778.03;;;19.86;25.67
70200;BME280;57587;55.688;37.600;2022-10-16T11:09:51;100785.84;;;19.56;25.52
70200;BME280;57587;55.688;37.600;2022-10-16T11:12:33;100797.00;;;18.81;26.42
70200;BME280;57587;55.688;37.600;2022-10-16T11:15:22;100790.00;;;18.32;27.21
70200;BME280;57587;55.688;37.600;2022-10-16T11:17:57;100790.25;;;17.83;28.36
70200;BME280;57587;55.688;37.600;2022-10-16T11:20:31;100788.72;;;17.32;29.13
70200;BME280;57587;55.688;37.600;2022-10-16T11:23:10;100779.63;;;17.12;29.80
70200;BME280;57587;55.688;37.600;2022-10-16T11:25:39;100785.34;;;16.95;30.07
70200;BME280;57587;55.688;37.600;2022-10-16T11:28:12;100781.75;;;16.67;30.69
70200;BME280;57587;55.688;37.600;2022-10-16T11:30:50;100779.09;;;16.30;31.04
70200;BME280;57587;55.688;37.600;2022-10-16T11:33:26;100782.75;;;16.01;31.48
70200;BME280;57587;55.688;37.600;2022-10-16T11:42:08;100784.38;;;15.36;32.67
70200;BME280;57587;55.688;37.600;2022-10-16T11:56:52;100782.47;;;14.15;35.58
70200;BME280;57587;55.688;37.600;2022-10-16T12:07:09;100776.34;;;14.06;36.00
70200;BME280;57587;55.688;37.600;2022-10-16T12:09:39;100774.63;;;14.05;35.71
70200;BME280;57587;55.688;37.600;2022-10-16T12:12:28;100787.75;;;14.08;35.81
70200;BME280;57587;55.688;37.600;2022-10-16T12:15:41;100784.28;;;14.00;36.14
70200;BME280;57587;55.688;37.600;2022-10-16T12:18:25;100764.34;;;13.78;36.37
70200;BME280;57587;55.688;37.600;2022-10-16T12:20:59;100778.66;;;13.78;36.63
70200;BME280;57587;55.688;37.600;2022-10-16T12:23:46;100771.28;;;13.72;36.25
70200;BME280;57587;55.688;37.600;2022-10-16T12:26:31;100770.28;;;13.73;36.65
70200;BME280;57587;55.688;37.600;2022-10-16T12:29:28;100763.28;;;13.56;36.86
70200;BME280;57587;55.688;37.600;2022-10-16T12:32:33;100735.50;;;13.32;37.37
70200;BME280;57587;55.688;37.600;2022-10-16T12:35:43;100740.34;;;13.37;37.25
70200;BME280;57587;55.688;37.600;2022-10-16T12:38:29;100739.03;;;13.25;37.32
70200;BME280;57587;55.688;37.600;2022-10-16T12:41:35;100758.03;;;13.63;37.35
70200;BME280;57587;55.688;37.600;2022-10-16T12:44:24;100768.59;;;13.72;36.93
70200;BME280;57587;55.688;37.600;2022-10-16T12:46:58;100760.25;;;13.59;37.17
70200;BME280;57587;55.688;37.600;2022-10-16T12:49:34;100763.34;;;13.40;37.26
70200;BME280;57587;55.688;37.600;2022-10-16T12:52:04;100758.84;;;13.32;37.33
70200;BME280;57587;55.688;37.600;2022-10-16T12:54:37;100752.25;;;13.34;37.77
70200;BME280;57587;55.688;37.600;2022-10-16T13:10:41;100730.13;;;13.16;38.12
70200;BME280;57587;55.688;37.600;2022-10-16T13:27:48;100754.34;;;13.00;38.30
70200;BME280;57587;55.688;37.600;2022-10-16T13:30:24;100747.97;;;13.01;38.44
70200;BME280;57587;55.688;37.600;2022-10-16T13:33:03;100751.16;;;12.88;38.48
70200;BME280;57587;55.688;37.600;2022-10-16T13:35:48;100755.06;;;12.85;38.33
70200;BME280;57587;55.688;37.600;2022-10-16T13:38:27;100758.06;;;12.90;38.94
70200;BME280;57587;55.688;37.600;2022-10-16T13:41:05;100750.03;;;12.82;38.77
70200;BME280;57587;55.688;37.600;2022-10-16T13:46:10;100748.47;;;12.88;38.86
70200;BME280;57587;55.688;37.600;2022-10-16T13:48:44;100750.16;;;12.73;38.90
70200;BME280;57587;55.688;37.600;2022-10-16T13:51:14;100749.69;;;12.77;38.88
70200;BME280;57587;55.688;37.600;2022-10-16T13:53:48;100750.38;;;12.79;39.29
70200;BME280;57587;55.688;37.600;2022-10-16T13:56:17;100751.03;;;12.73;39.32
70200;BME280;57587;55.688;37.600;2022-10-16T13:58:45;100747.66;;;12.63;39.73
70200;BME280;57587;55.688;37.600;2022-10-16T14:01:20;100749.16;;;12.57;39.61
70200;BME280;57587;55.688;37.600;2022-10-16T14:04:10;100750.03;;;12.50;39.99
70200;BME280;57587;55.688;37.600;2022-10-16T14:53:51;100761.13;;;11.37;43.04
70200;BME280;57587;55.688;37.600;2022-10-16T14:56:29;100761.25;;;11.36;43.23
70200;BME280;57587;55.688;37.600;2022-10-16T14:58:59;100761.06;;;11.29;43.21
70200;BME280;57587;55.688;37.600;2022-10-16T15:01:27;100759.41;;;11.28;43.32
70200;BME280;57587;55.688;37.600;2022-10-16T15:03:54;100757.03;;;11.25;43.57
70200;BME280;57587;55.688;37.600;2022-10-16T15:06:22;100769.91;;;11.21;43.53
70200;BME280;57587;55.688;37.600;2022-10-16T15:08:52;100772.22;;;11.16;43.96
70200;BME280;57587;55.688;37.600;2022-10-16T15:11:19;100771.31;;;11.07;44.42
70200;BME280;57587;55.688;37.600;2022-10-16T15:13:46;100765.44;;;11.04;44.16
70200;BME280;57587;55.688;37.600;2022-10-16T15:16:16;100757.53;;;11.02;43.95
70200;BME280;57587;55.688;37.600;2022-10-16T15:18:43;100760.78;;;11.06;44.49
70200;BME280;57587;55.688;37.600;2022-10-16T15:21:28;100767.47;;;11.10;44.18
70200;BME280;57587;55.688;37.600;2022-10-16T15:23:56;100763.59;;;11.04;44.61
70200;BME280;57587;55.688;37.600;2022-10-16T15:26:25;100765.97;;;11.07;44.32
70200;BME280;57587;55.688;37.600;2022-10-16T15:28:53;100769.97;;;11.03;44.49
70200;BME280;57587;55.688;37.600;2022-10-16T15:31:20;100760.00;;;10.96;43.94
70200;BME280;57587;55.688;37.600;2022-10-16T15:33:53;100757.44;;;10.86;44.76
70200;BME280;57587;55.688;37.600;2022-10-16T15:36:33;100768.53;;;10.91;45.23
70200;BME280;57587;55.688;37.600;2022-10-16T15:39:04;100757.81;;;10.91;44.82
70200;BME280;57587;55.688;37.600;2022-10-16T15:41:32;100752.56;;;10.81;44.37
70200;BME280;57587;55.688;37.600;2022-10-16T15:44:04;100756.41;;;10.79;44.38
70200;BME280;57587;55.688;37.600;2022-10-16T15:46:31;100763.59;;;10.78;44.71
70200;BME280;57587;55.688;37.600;2022-10-16T15:49:00;100754.34;;;10.73;44.93
70200;BME280;57587;55.688;37.600;2022-10-16T15:51:41;100755.03;;;10.75;45.21
70200;BME280;57587;55.688;37.600;2022-10-16T15:54:12;100758.69;;;10.74;44.48
70200;BME280;57587;55.688;37.600;2022-10-16T15:56:40;100756.63;;;10.68;44.37